This is the latest recevied weather packets stored in our database for station/object N6RDS. If no packets are shown the sender has not sent any weather packets the latest 10 day(s).
| Time | Temp. | Humidity | Pressure | Rain* | Wind** | Luminosity | Snow |
|---|---|---|---|---|---|---|---|
| 1777849206 | 20.56° C | 27% | 1022.7 hPa | 0 mm | - | 154 W/m² | - |
| 1777848902 | 21.67° C | 26% | 1022.4 hPa | 0 mm | - | 365 W/m² | - |
| 1777848593 | 20.56° C | 29% | 1022.6 hPa | 0 mm | - | 222 W/m² | - |
| 1777848290 | 20.56° C | 28% | 1022.8 hPa | 0 mm | - | 447 W/m² | - |
| 1777847988 | 20.56° C | 28% | 1022.8 hPa | 0 mm | - | 71 W/m² | - |
| 1777847686 | 20.56° C | 28% | 1022.7 hPa | 0 mm | - | 146 W/m² | - |
| 1777847381 | 20° C | 27% | 1023.3 hPa | 0 mm | - | 78 W/m² | - |
| 1777847080 | 20° C | 29% | 1022.9 hPa | 0 mm | - | 168 W/m² | - |
| 1777846777 | 20.56° C | 30% | 1023.1 hPa | 0 mm | - | 160 W/m² | - |
| 1777846475 | 21.67° C | 28% | 1022.9 hPa | 0 mm | - | 448 W/m² | - |
| 1777846172 | 21.11° C | 26% | 1023.1 hPa | 0 mm | - | 456 W/m² | - |
| 1777845868 | 21.11° C | 28% | 1023.2 hPa | 0 mm | - | 426 W/m² | - |
| 1777845565 | 20.56° C | 29% | 1023.4 hPa | 0 mm | - | 417 W/m² | - |
| 1777845262 | 21.11° C | 28% | 1023.3 hPa | 0 mm | - | 298 W/m² | - |
| 1777844960 | 21.11° C | 28% | 1023.6 hPa | 0 mm | - | 507 W/m² | - |
| 1777844657 | 20.56° C | 27% | 1023.7 hPa | 0 mm | - | 395 W/m² | - |
| 1777844355 | 20.56° C | 29% | 1023.4 hPa | 0 mm | - | 679 W/m² | - |
| 1777844053 | 20.56° C | 30% | 1023.3 hPa | 0 mm | - | 126 W/m² | - |
| 1777843749 | 20.56° C | 29% | 1023.7 hPa | 0 mm | - | 185 W/m² | - |
| 1777843447 | 20.56° C | 31% | 1023.8 hPa | 0 mm | - | 290 W/m² | - |
| 1777843144 | 22.22° C | 29% | 1023.6 hPa | 0 mm | - | 279 W/m² | - |
| 1777842840 | 21.67° C | 30% | 1023.6 hPa | 0 mm | - | 466 W/m² | - |
| 1777842535 | 21.67° C | 31% | 1023.9 hPa | 0 mm | - | 647 W/m² | - |
| 1777842232 | 22.22° C | 30% | 1023.9 hPa | 0 mm | - | 665 W/m² | - |
| 1777841928 | 21.67° C | 29% | 1024 hPa | 0 mm | - | 658 W/m² | - |
* Rain latest hour (hover to see other rain measurements)
** Current wind speed in m/s (hover to see current wind gust speed)